createdAt,value
2022-12-25T00:00:58.241Z,6.28
2022-12-25T00:03:30.045Z,6.16
2022-12-25T00:06:03.154Z,6.08
2022-12-25T00:08:35.201Z,6.09
2022-12-25T00:11:09.801Z,6.22
2022-12-25T00:13:41.477Z,6.29
2022-12-25T00:16:16.547Z,6.23
2022-12-25T00:18:49.120Z,6.19
2022-12-25T00:21:21.414Z,6.27
2022-12-25T00:23:57.007Z,6.33
2022-12-25T00:26:29.861Z,6.34
2022-12-25T00:29:07.793Z,6.36
2022-12-25T00:31:42.508Z,6.29
2022-12-25T00:34:12.751Z,6.16
2022-12-25T00:36:44.957Z,6.16
2022-12-25T00:39:16.972Z,6.31
2022-12-25T00:42:06.200Z,6.29
2022-12-25T00:44:42.577Z,6.19
2022-12-25T00:47:14.125Z,6.10
2022-12-25T00:49:46.995Z,6.00
2022-12-25T00:52:18.883Z,6.18
2022-12-25T00:54:50.287Z,6.28
2022-12-25T00:57:21.837Z,6.24
2022-12-25T00:59:53.474Z,6.14
2022-12-25T01:02:25.728Z,6.19
2022-12-25T01:04:58.577Z,6.34
2022-12-25T01:07:30.817Z,6.34
2022-12-25T01:10:19.920Z,6.28
2022-12-25T01:12:52.306Z,6.32
2022-12-25T01:15:24.311Z,6.27
2022-12-25T01:17:55.942Z,6.31
2022-12-25T01:20:27.812Z,6.30
2022-12-25T01:22:59.301Z,6.38
2022-12-25T01:25:30.991Z,6.26
2022-12-25T01:28:02.623Z,6.27
2022-12-25T01:30:34.723Z,6.32
2022-12-25T01:33:06.416Z,6.30
2022-12-25T01:35:40.507Z,6.34
2022-12-25T01:38:12.169Z,6.40
2022-12-25T01:40:43.668Z,6.36
2022-12-25T01:43:24.718Z,6.27
2022-12-25T01:45:56.799Z,6.41
2022-12-25T01:48:32.102Z,6.50
2022-12-25T01:51:07.719Z,6.36
2022-12-25T01:53:40.874Z,6.32
2022-12-25T01:56:13.383Z,6.24
2022-12-25T01:58:45.007Z,6.39
2022-12-25T02:01:16.667Z,6.29
2022-12-25T02:03:48.302Z,6.18
2022-12-25T02:06:19.896Z,6.14
2022-12-25T02:08:52.463Z,6.16
2022-12-25T02:11:37.688Z,6.22
2022-12-25T02:14:09.579Z,6.15
2022-12-25T02:16:57.005Z,6.16
2022-12-25T02:19:53.053Z,6.34
2022-12-25T02:22:41.052Z,6.54
2022-12-25T02:25:32.022Z,6.57
2022-12-25T02:28:17.776Z,6.59
2022-12-25T02:30:54.573Z,6.45
2022-12-25T02:33:49.368Z,6.43
2022-12-25T02:36:26.462Z,6.51
2022-12-25T02:39:19.045Z,6.53
2022-12-25T02:41:55.363Z,6.58
2022-12-25T02:44:47.032Z,6.58
2022-12-25T02:47:36.546Z,6.48
2022-12-25T02:50:27.710Z,6.31
2022-12-25T02:53:18.212Z,6.30
2022-12-25T02:56:08.907Z,6.33
2022-12-25T02:59:01.876Z,6.42
2022-12-25T03:01:53.965Z,6.41
2022-12-25T03:04:47.668Z,6.48
2022-12-25T03:07:23.120Z,6.43
2022-12-25T03:10:16.606Z,6.54
2022-12-25T03:12:55.385Z,6.61
2022-12-25T03:15:44.672Z,6.54
2022-12-25T03:18:20.403Z,6.42
2022-12-25T03:21:09.112Z,6.38
2022-12-25T03:24:00.154Z,6.43
2022-12-25T03:26:48.997Z,6.47
2022-12-25T03:29:34.061Z,6.46
2022-12-25T03:32:14.611Z,6.57
2022-12-25T03:35:12.329Z,6.66
2022-12-25T03:38:12.111Z,6.64
2022-12-25T03:41:14.886Z,6.58
2022-12-25T03:44:11.105Z,6.56
2022-12-25T03:47:07.573Z,6.70
2022-12-25T03:50:05.202Z,6.76
2022-12-25T03:52:57.202Z,6.72
2022-12-25T03:55:55.285Z,6.77
2022-12-25T03:58:46.304Z,6.59
2022-12-25T04:01:35.415Z,6.59
2022-12-25T04:04:24.437Z,6.73
2022-12-25T04:07:13.363Z,6.84
2022-12-25T04:10:02.363Z,6.79
2022-12-25T04:12:51.037Z,6.80
2022-12-25T04:15:40.353Z,6.74
2022-12-25T04:18:29.232Z,6.64
2022-12-25T04:21:18.106Z,6.66
2022-12-25T04:24:06.724Z,6.65
2022-12-25T04:26:55.717Z,6.68
2022-12-25T04:29:44.595Z,6.63
2022-12-25T04:32:34.554Z,6.48
2022-12-25T04:35:24.476Z,6.44
2022-12-25T04:37:56.224Z,6.40
2022-12-25T04:40:27.887Z,6.47
2022-12-25T04:42:59.513Z,6.50
2022-12-25T04:45:30.951Z,6.51
2022-12-25T04:48:04.062Z,6.51
2022-12-25T04:50:35.543Z,6.61
2022-12-25T04:53:06.965Z,6.49
2022-12-25T04:55:38.443Z,6.59
2022-12-25T04:58:10.694Z,6.69
2022-12-25T05:00:42.575Z,6.72
2022-12-25T05:03:14.279Z,6.67
2022-12-25T05:05:45.799Z,6.67
2022-12-25T05:08:17.309Z,6.69
2022-12-25T05:10:48.811Z,6.69
2022-12-25T05:13:20.561Z,6.71
2022-12-25T05:15:52.328Z,6.77
2022-12-25T05:18:24.353Z,6.82
2022-12-25T05:20:56.417Z,6.86
2022-12-25T05:23:28.567Z,6.88
2022-12-25T05:26:00.424Z,6.93
2022-12-25T05:28:32.016Z,6.90
2022-12-25T05:31:03.964Z,6.80
2022-12-25T05:33:35.567Z,6.82
2022-12-25T05:36:09.167Z,6.98
2022-12-25T05:38:41.003Z,7.10
2022-12-25T05:41:12.506Z,7.06
2022-12-25T05:43:44.346Z,7.00
2022-12-25T05:46:16.613Z,6.92
2022-12-25T05:48:48.374Z,7.01
2022-12-25T05:51:19.863Z,7.08
2022-12-25T05:53:51.534Z,7.13
2022-12-25T05:56:23.065Z,7.11
2022-12-25T05:58:54.493Z,7.18
2022-12-25T06:01:29.088Z,7.17
2022-12-25T06:03:59.811Z,7.09
2022-12-25T06:06:31.413Z,7.04
2022-12-25T06:09:02.907Z,7.06
2022-12-25T06:11:34.398Z,6.95
2022-12-25T06:14:06.081Z,7.01
2022-12-25T06:16:38.475Z,7.08
2022-12-25T06:19:10.839Z,7.05
2022-12-25T06:21:42.380Z,7.04
2022-12-25T06:24:20.831Z,7.01
2022-12-25T06:26:53.476Z,7.05
2022-12-25T06:29:25.017Z,7.01
2022-12-25T06:31:57.642Z,7.00
2022-12-25T06:34:29.626Z,7.03
2022-12-25T06:37:01.381Z,7.04
2022-12-25T06:39:33.429Z,7.10
2022-12-25T06:42:05.060Z,7.07
2022-12-25T06:44:36.581Z,7.02
2022-12-25T06:47:08.109Z,7.08
2022-12-25T06:49:39.802Z,7.13
2022-12-25T06:52:11.374Z,7.09
2022-12-25T06:54:42.858Z,7.15
2022-12-25T06:57:14.404Z,7.36
2022-12-25T06:59:49.896Z,7.40
2022-12-25T07:02:27.822Z,7.42
2022-12-25T07:04:59.654Z,7.41
2022-12-25T07:07:31.202Z,7.37
2022-12-25T07:10:02.759Z,7.39
2022-12-25T07:12:34.317Z,7.43
2022-12-25T07:15:06.589Z,7.42
2022-12-25T07:17:38.118Z,7.47
2022-12-25T07:20:11.744Z,7.48
2022-12-25T07:22:43.180Z,7.49
2022-12-25T07:25:14.789Z,7.54
2022-12-25T07:27:46.437Z,7.59
2022-12-25T07:30:18.509Z,7.61
2022-12-25T07:32:51.911Z,7.51
2022-12-25T07:35:23.988Z,7.54
2022-12-25T07:37:55.465Z,7.46
2022-12-25T07:40:27.163Z,7.46
2022-12-25T07:42:58.890Z,7.51
2022-12-25T07:45:30.543Z,7.41
2022-12-25T07:48:05.520Z,7.45
2022-12-25T07:50:38.730Z,7.56
2022-12-25T07:53:11.640Z,7.58
2022-12-25T07:55:43.164Z,7.50
2022-12-25T07:58:18.561Z,7.53
2022-12-25T08:00:54.559Z,7.64
2022-12-25T08:03:26.638Z,7.60
2022-12-25T08:06:00.167Z,7.55
2022-12-25T08:08:31.992Z,7.56
2022-12-25T08:11:04.242Z,7.64
2022-12-25T08:13:36.304Z,7.59
2022-12-25T08:16:10.330Z,7.52
2022-12-25T08:18:43.341Z,7.43
2022-12-25T08:21:16.922Z,7.37
2022-12-25T08:23:49.961Z,7.42
2022-12-25T08:26:24.053Z,7.48
2022-12-25T08:28:55.773Z,7.49
2022-12-25T08:31:29.890Z,7.38
2022-12-25T08:34:03.336Z,7.42
2022-12-25T08:36:35.190Z,7.33
2022-12-25T08:39:07.028Z,7.29
2022-12-25T08:41:39.287Z,7.32
2022-12-25T08:44:13.487Z,7.36
2022-12-25T08:46:45.166Z,7.32
2022-12-25T08:49:16.836Z,7.37
2022-12-25T08:51:49.025Z,7.54
2022-12-25T08:54:20.546Z,7.57
2022-12-25T08:56:55.077Z,7.43
2022-12-25T08:59:28.912Z,7.41
2022-12-25T09:02:00.648Z,7.51
2022-12-25T09:04:32.981Z,7.55
2022-12-25T09:07:04.726Z,7.61
2022-12-25T09:09:36.233Z,7.76
2022-12-25T09:12:08.129Z,7.79
2022-12-25T09:14:39.801Z,7.62
2022-12-25T09:17:12.984Z,7.51
2022-12-25T09:19:45.469Z,7.60
2022-12-25T09:22:18.358Z,7.72
2022-12-25T09:24:51.677Z,7.76
2022-12-25T09:27:23.374Z,7.77
2022-12-25T09:29:54.991Z,7.82
2022-12-25T09:32:26.630Z,7.88
2022-12-25T09:34:58.137Z,7.89
2022-12-25T09:37:30.127Z,7.87
2022-12-25T09:40:01.840Z,7.96
2022-12-25T09:42:35.596Z,8.20
2022-12-25T09:45:14.429Z,8.24
2022-12-25T09:47:49.844Z,8.40
2022-12-25T09:50:28.620Z,8.47
2022-12-25T09:53:07.457Z,8.48
2022-12-25T09:55:45.233Z,8.61
2022-12-25T09:58:17.843Z,8.53
2022-12-25T10:01:30.180Z,8.51
2022-12-25T10:04:31.892Z,8.65
2022-12-25T10:07:15.746Z,8.86
2022-12-25T10:10:18.261Z,8.91
2022-12-25T10:13:03.435Z,8.86
2022-12-25T10:15:39.133Z,8.90
2022-12-25T10:18:41.903Z,9.08
2022-12-25T10:21:18.527Z,9.18
2022-12-25T10:23:53.701Z,9.22
2022-12-25T10:26:27.224Z,9.18
2022-12-25T10:29:03.449Z,9.13
2022-12-25T10:31:38.851Z,9.16
2022-12-25T10:34:13.990Z,9.23
2022-12-25T10:36:47.655Z,9.27
2022-12-25T10:39:22.232Z,9.20
2022-12-25T10:42:28.179Z,9.30
2022-12-25T10:45:01.381Z,9.41
2022-12-25T10:47:37.672Z,9.33
2022-12-25T10:50:19.681Z,9.13
2022-12-25T10:52:56.786Z,9.04
2022-12-25T10:55:29.675Z,9.05
2022-12-25T10:58:02.279Z,9.15
2022-12-25T11:00:35.516Z,9.22
2022-12-25T11:03:07.451Z,9.13
2022-12-25T11:05:39.561Z,9.04
2022-12-25T11:08:23.322Z,9.00
2022-12-25T11:11:06.656Z,8.93
2022-12-25T11:13:42.462Z,8.92
2022-12-25T11:16:26.746Z,9.04
2022-12-25T11:18:59.622Z,9.10
2022-12-25T11:21:32.992Z,9.13
2022-12-25T11:24:06.604Z,9.24
2022-12-25T11:26:50.429Z,9.18
2022-12-25T11:29:30.730Z,9.19
2022-12-25T11:32:04.233Z,9.21
2022-12-25T11:34:38.820Z,9.13
2022-12-25T11:37:17.355Z,9.11
2022-12-25T11:39:49.544Z,9.14
2022-12-25T11:42:26.816Z,9.14
2022-12-25T11:45:03.991Z,9.09
2022-12-25T11:47:40.031Z,9.18
2022-12-25T11:50:23.915Z,9.29
2022-12-25T11:52:56.794Z,9.27
2022-12-25T11:55:35.822Z,9.27
2022-12-25T11:58:15.035Z,9.20
2022-12-25T12:00:51.421Z,9.39
2022-12-25T12:03:28.859Z,9.38
2022-12-25T12:06:03.962Z,9.28
2022-12-25T12:08:37.063Z,9.27
2022-12-25T12:11:18.645Z,9.46
2022-12-25T12:14:07.634Z,9.54
2022-12-25T12:16:39.699Z,9.57
2022-12-25T12:19:29.130Z,9.41
2022-12-25T12:22:03.028Z,9.38
2022-12-25T12:24:39.935Z,9.46
2022-12-25T12:27:24.060Z,9.45
2022-12-25T12:29:58.429Z,9.52
2022-12-25T12:32:46.405Z,9.46
2022-12-25T12:35:21.643Z,9.45
2022-12-25T12:37:56.504Z,9.58
2022-12-25T12:40:37.091Z,9.50
2022-12-25T12:43:25.974Z,9.58
2022-12-25T12:46:03.640Z,9.55
2022-12-25T12:48:42.359Z,9.43
2022-12-25T12:51:15.805Z,9.50
2022-12-25T12:53:47.396Z,9.36
2022-12-25T12:56:21.825Z,9.36
2022-12-25T12:58:53.672Z,9.44
2022-12-25T13:01:44.363Z,9.32
2022-12-25T13:04:47.669Z,9.28
2022-12-25T13:07:33.687Z,9.10
2022-12-25T13:10:23.170Z,9.07
2022-12-25T13:12:59.716Z,9.12
2022-12-25T13:15:34.458Z,9.12
2022-12-25T13:18:07.261Z,9.13
2022-12-25T13:20:47.550Z,9.13
2022-12-25T13:23:28.308Z,9.16
2022-12-25T13:26:01.386Z,9.18
2022-12-25T13:28:34.935Z,9.22
2022-12-25T13:31:15.208Z,9.14
2022-12-25T13:33:50.530Z,9.21
2022-12-25T13:36:22.352Z,9.14
2022-12-25T13:38:56.758Z,9.10
2022-12-25T13:41:53.671Z,9.13
2022-12-25T13:44:29.033Z,9.15
2022-12-25T13:47:16.575Z,9.08
2022-12-25T13:49:49.058Z,8.97
2022-12-25T13:52:21.851Z,8.99
2022-12-25T13:55:00.574Z,9.12
2022-12-25T13:57:36.087Z,9.15
2022-12-25T14:00:18.365Z,9.13
2022-12-25T14:02:50.734Z,9.13
2022-12-25T14:05:42.863Z,9.05
2022-12-25T14:08:20.849Z,9.02
2022-12-25T14:10:54.590Z,9.05
2022-12-25T14:13:30.219Z,9.12
2022-12-25T14:16:02.550Z,9.21
2022-12-25T14:18:35.654Z,9.31
2022-12-25T14:21:12.566Z,9.33
2022-12-25T14:23:46.880Z,9.31
2022-12-25T14:26:24.115Z,9.25
2022-12-25T14:28:59.395Z,9.19
2022-12-25T14:31:33.081Z,9.18
2022-12-25T14:34:06.852Z,9.10
2022-12-25T14:36:39.066Z,9.01
2022-12-25T14:39:29.555Z,8.95
2022-12-25T14:42:02.128Z,8.97
2022-12-25T14:44:39.045Z,9.00
2022-12-25T14:47:18.034Z,8.95
2022-12-25T14:49:49.956Z,8.80
2022-12-25T14:52:24.697Z,8.77
2022-12-25T14:54:55.918Z,8.81
2022-12-25T14:57:31.352Z,8.87
2022-12-25T15:00:07.880Z,8.82
2022-12-25T15:02:46.013Z,8.75
2022-12-25T15:05:41.012Z,8.75
2022-12-25T15:08:27.340Z,8.77
2022-12-25T15:11:02.308Z,8.72
2022-12-25T15:13:34.645Z,8.68
2022-12-25T15:16:14.642Z,8.68
2022-12-25T15:18:48.481Z,8.62
2022-12-25T15:21:24.749Z,8.68
2022-12-25T15:23:58.419Z,8.76
2022-12-25T15:26:32.157Z,8.65
2022-12-25T15:29:03.744Z,8.50
2022-12-25T15:31:37.902Z,8.46
2022-12-25T15:34:22.235Z,8.42
2022-12-25T15:36:53.864Z,8.43
2022-12-25T15:39:25.359Z,8.49
2022-12-25T15:42:14.992Z,8.40
2022-12-25T15:44:47.324Z,8.42
2022-12-25T15:47:20.383Z,8.45
2022-12-25T15:49:52.350Z,8.52
2022-12-25T15:52:23.990Z,8.50
2022-12-25T15:54:55.665Z,8.38
2022-12-25T15:57:27.221Z,8.39
2022-12-25T15:59:58.880Z,8.36
2022-12-25T16:02:30.577Z,8.33
2022-12-25T16:05:09.961Z,8.12
2022-12-25T16:07:42.125Z,8.06
2022-12-25T16:10:18.210Z,8.10
2022-12-25T16:12:49.783Z,8.16
2022-12-25T16:15:21.420Z,8.23
2022-12-25T16:17:52.912Z,8.26
2022-12-25T16:20:24.464Z,8.08
2022-12-25T16:22:55.866Z,7.95
2022-12-25T16:25:27.634Z,7.93
2022-12-25T16:27:59.166Z,7.98
2022-12-25T16:30:31.096Z,8.01
2022-12-25T16:33:02.741Z,8.02
2022-12-25T16:35:34.852Z,7.93
2022-12-25T16:38:06.876Z,7.83
2022-12-25T16:40:38.576Z,7.82
2022-12-25T16:43:10.373Z,7.82
2022-12-25T16:45:42.881Z,7.78
2022-12-25T16:48:14.915Z,7.84
2022-12-25T16:50:46.601Z,7.81
2022-12-25T16:53:18.573Z,7.68
2022-12-25T16:55:51.899Z,7.62
2022-12-25T16:58:23.578Z,7.72
2022-12-25T17:00:55.451Z,7.73
2022-12-25T17:03:27.343Z,7.74
2022-12-25T17:05:58.822Z,7.70
2022-12-25T17:08:30.581Z,7.64
2022-12-25T17:11:05.661Z,7.58
2022-12-25T17:13:37.519Z,7.64
2022-12-25T17:16:18.211Z,7.64
2022-12-25T17:18:54.268Z,7.67
2022-12-25T17:21:26.696Z,7.66
2022-12-25T17:24:03.088Z,7.64
2022-12-25T17:26:35.803Z,7.67
2022-12-25T17:29:07.458Z,7.59
2022-12-25T17:31:39.942Z,7.52
2022-12-25T17:34:12.647Z,7.41
2022-12-25T17:36:45.109Z,7.49
2022-12-25T17:39:16.812Z,7.47
2022-12-25T17:41:50.274Z,7.33
2022-12-25T17:44:22.845Z,7.32
2022-12-25T17:46:54.750Z,7.42
2022-12-25T17:49:26.409Z,7.43
2022-12-25T17:51:58.768Z,7.49
2022-12-25T17:54:30.290Z,7.49
2022-12-25T17:57:01.938Z,7.49
2022-12-25T17:59:33.679Z,7.45
2022-12-25T18:02:05.492Z,7.52
2022-12-25T18:04:37.121Z,7.47
2022-12-25T18:07:08.715Z,7.35
2022-12-25T18:09:40.661Z,7.25
2022-12-25T18:12:12.486Z,7.21
2022-12-25T18:14:44.258Z,7.19
2022-12-25T18:17:15.872Z,7.17
2022-12-25T18:19:47.538Z,7.13
2022-12-25T18:22:19.654Z,7.11
2022-12-25T18:24:51.480Z,7.13
2022-12-25T18:27:23.140Z,7.19
2022-12-25T18:29:54.709Z,7.21
2022-12-25T18:32:28.156Z,7.16
2022-12-25T18:35:00.117Z,7.09
2022-12-25T18:37:35.906Z,7.08
2022-12-25T18:40:12.631Z,7.10
2022-12-25T18:42:46.823Z,7.13
2022-12-25T18:45:20.138Z,7.11
2022-12-25T18:47:52.040Z,7.10
2022-12-25T18:50:38.675Z,7.08
2022-12-25T18:53:10.959Z,6.97
2022-12-25T18:55:45.221Z,6.93
2022-12-25T18:58:17.128Z,6.90
2022-12-25T19:00:48.898Z,6.89
2022-12-25T19:03:20.557Z,6.83
2022-12-25T19:05:52.241Z,6.80
2022-12-25T19:08:24.049Z,6.81
2022-12-25T19:10:56.000Z,6.71
2022-12-25T19:13:27.872Z,6.79
2022-12-25T19:16:02.868Z,6.78
2022-12-25T19:18:37.380Z,6.69
2022-12-25T19:21:11.320Z,6.61
2022-12-25T19:23:43.269Z,6.62
2022-12-25T19:26:15.190Z,6.54
2022-12-25T19:28:46.827Z,6.50
2022-12-25T19:31:19.448Z,6.62
2022-12-25T19:33:51.990Z,6.55
2022-12-25T19:36:24.337Z,6.47
2022-12-25T19:38:56.935Z,6.47
2022-12-25T19:41:29.383Z,6.48
2022-12-25T19:44:01.483Z,6.52
2022-12-25T19:46:35.670Z,6.41
2022-12-25T19:49:08.398Z,6.49
2022-12-25T19:51:43.337Z,6.66
2022-12-25T19:54:17.550Z,6.76
2022-12-25T19:56:50.336Z,6.85
2022-12-25T19:59:22.397Z,6.79
2022-12-25T20:01:54.943Z,6.83
2022-12-25T20:04:26.626Z,6.83
2022-12-25T20:06:59.103Z,6.80
2022-12-25T20:09:33.085Z,6.69
2022-12-25T20:12:05.377Z,6.67
2022-12-25T20:14:37.457Z,6.66
2022-12-25T20:17:15.568Z,6.79
2022-12-25T20:19:47.687Z,6.75
2022-12-25T20:22:19.371Z,6.70
2022-12-25T20:24:50.975Z,6.70
2022-12-25T20:27:23.406Z,6.66
2022-12-25T20:29:56.066Z,6.78
2022-12-25T20:32:28.993Z,6.76
2022-12-25T20:35:02.355Z,6.78
2022-12-25T20:37:34.155Z,6.69
2022-12-25T20:40:08.179Z,6.54
2022-12-25T20:42:40.521Z,6.43
2022-12-25T20:45:13.498Z,6.39
2022-12-25T20:47:45.933Z,6.42
2022-12-25T20:50:18.357Z,6.51
2022-12-25T20:52:50.031Z,6.53
2022-12-25T20:55:22.163Z,6.45
2022-12-25T20:57:54.200Z,6.34
2022-12-25T21:00:26.717Z,6.27
2022-12-25T21:02:58.993Z,6.25
2022-12-25T21:05:31.771Z,6.40
2022-12-25T21:08:03.552Z,6.45
2022-12-25T21:10:36.732Z,6.35
2022-12-25T21:13:08.747Z,6.36
2022-12-25T21:15:44.102Z,6.39
2022-12-25T21:18:16.711Z,6.35
2022-12-25T21:20:51.665Z,6.32
2022-12-25T21:23:24.215Z,6.34
2022-12-25T21:25:56.272Z,6.32
2022-12-25T21:28:30.451Z,6.38
2022-12-25T21:31:07.072Z,6.49
2022-12-25T21:33:55.371Z,6.46
2022-12-25T21:36:29.324Z,6.34
2022-12-25T21:39:04.382Z,6.28
2022-12-25T21:41:40.587Z,6.26
2022-12-25T21:44:14.466Z,6.31
2022-12-25T21:46:46.560Z,6.20
2022-12-25T21:49:39.255Z,6.24
2022-12-25T21:52:11.199Z,6.34
2022-12-25T21:54:43.117Z,6.33
2022-12-25T21:57:14.570Z,6.28
2022-12-25T21:59:46.526Z,6.23
2022-12-25T22:02:19.103Z,6.16
2022-12-25T22:04:51.290Z,6.19
2022-12-25T22:07:23.110Z,6.11
2022-12-25T22:09:55.023Z,6.08
2022-12-25T22:12:43.942Z,6.13
2022-12-25T22:15:15.652Z,6.27
2022-12-25T22:18:04.447Z,6.36
2022-12-25T22:20:39.585Z,6.20
2022-12-25T22:23:11.171Z,6.14
2022-12-25T22:25:43.115Z,6.18
2022-12-25T22:28:15.330Z,6.31
2022-12-25T22:30:46.816Z,6.38
2022-12-25T22:33:20.771Z,6.43
2022-12-25T22:35:52.599Z,6.55
2022-12-25T22:38:24.179Z,6.62
2022-12-25T22:40:55.690Z,6.62
2022-12-25T22:43:50.633Z,6.65
2022-12-25T22:46:19.082Z,6.66
2022-12-25T22:48:51.619Z,6.66
2022-12-25T22:51:23.392Z,6.54
2022-12-25T22:53:58.803Z,6.59
2022-12-25T22:56:34.965Z,6.52
2022-12-25T22:59:06.730Z,6.42
2022-12-25T23:01:38.960Z,6.40
2022-12-25T23:04:10.771Z,6.37
2022-12-25T23:06:43.147Z,6.35
2022-12-25T23:09:24.180Z,6.27
2022-12-25T23:11:56.953Z,6.25
2022-12-25T23:14:41.222Z,6.40
2022-12-25T23:17:28.755Z,6.30
2022-12-25T23:20:18.934Z,6.24
2022-12-25T23:23:07.749Z,6.21
2022-12-25T23:25:56.714Z,6.15
2022-12-25T23:28:50.920Z,6.23
2022-12-25T23:31:25.437Z,6.18
2022-12-25T23:33:57.036Z,6.28
2022-12-25T23:36:29.201Z,6.30
2022-12-25T23:39:08.567Z,6.26
2022-12-25T23:41:42.128Z,6.26
2022-12-25T23:44:15.439Z,6.25
2022-12-25T23:46:53.137Z,6.33
2022-12-25T23:49:25.880Z,6.41
2022-12-25T23:51:57.939Z,6.34
2022-12-25T23:54:31.531Z,6.35
2022-12-25T23:57:03.257Z,6.38
2022-12-25T23:59:35.024Z,6.50
